Glover River (Oklahoma), Glover (07337900)

StateOklahomaLatestGood (395 cfs)
RiverGlover RiverRatingObservedEstimated
Updated2020-07-13 18:30 (1 hour ago)Flood - The river is flooding. Obstacles can be treacherous or deadly. The river should be avoided at this stage for casual trips and definitely for the inexperienced. Trips should be attempted only with protective gear and equipment.Flood(none)2142
Discharge395 cfs (median: 21 cfs)High - The river is high and potentially dangerous, especially for the young and / or inexperienced. Normal stream obstacles are sometimes difficult to navigate. Extended distances can be attempted, but canoe travel may not be advisable.High(none)725
Height4.79 feetGood - Conditions are ideal for a canoe or kayak. Boats typically will drag on fewer than one-quarter of riffles, if at all, and portages are unnecessary or rare. Normal float lengths can be attempted without a problem.Good100249
TrendFalling (rising over 24 hours)Low - River is low but can still be floated. Some riffles are okay but most come with significant dragging and might need a portage. Float lengths should be reduced to accommodate low flow, dragging, and portages.Low(none)97
USGSExternal icon USGS Site (External icon Google Maps)Poor - River is too low to float comfortably. Most or all riffles will drag or must be portaged and some obstacles (such as slick shelf rock) cause undue problems. Avoid the river at this stage for casual paddling trips.Poor(none)8

Trending Data

Plot Image

Trips for Glover River (Oklahoma), Glover (07337900)

DateStartEndDistanceConditionDischargeHeightFishingDetails
Click for details2009-05-30 Road D185 Jones River Ranch Road Total trip distance: 4.8 miles4.8 Good 100 3.62 Fair GSF
LSF
SMB
GSF, LSF, SMB
Fillmore, Brian
Fillmore, Rebecca
Ligon, Day
Fillmore, Brian; Fillmore, Rebecca; Ligon, Day
No notes for this trip<i>No notes for this trip</i> USGS Gauge Data:
Glover (07337900)
Discharge: 100
Height: 3.62
<b>USGS Gauge Data:</b></br />Glover (07337900)<br />Discharge: 100<br />Height: 3.62
Source: FillmoreSource: Fillmore

A total of 1 rows are displayed.

Trip Summary for Glover River (Oklahoma), Glover (07337900)

Miles4.8
Trips1
People3
Dates1
Years1
Months1
Rows1
Sources1

Condition Descriptions

Fishing Conditions

Fish Species

Notes

Classic Trip List

The classic River Trips application is still available for use. It is updated with the new system using a data retrofit. It is no longer maintained. The original River Trips application is no longer updated (as of 1 Dec 2016) but can be checked for errors or for the condition of the data before it was converted to the new system.

Gauge Data Table

ObservationHeightDischargeMaximum
Discharge
Minimum
Discharge
Mean
Discharge
P05P10P20P25P50
(Median)
P75P80P90P95
2020-07-13 18:30 4.79 395 3740 (1996) 0 (2012) 210 1 1 3 5 21 63 90 420 1900
2020-07-13 17:30 4.81 406 3740 (1996) 0 (2012) 210 1 1 3 5 21 63 90 420 1900
2020-07-13 16:30 4.83 419 3740 (1996) 0 (2012) 210 1 1 3 5 21 63 90 420 1900
2020-07-13 15:30 4.86 437 3740 (1996) 0 (2012) 210 1 1 3 5 21 63 90 420 1900
2020-07-13 14:30 4.89 456 3740 (1996) 0 (2012) 210 1 1 3 5 21 63 90 420 1900
2020-07-13 13:30 4.92 475 3740 (1996) 0 (2012) 210 1 1 3 5 21 63 90 420 1900
2020-07-13 12:30 4.94 488 3740 (1996) 0 (2012) 210 1 1 3 5 21 63 90 420 1900
2020-07-13 11:30 4.97 508 3740 (1996) 0 (2012) 210 1 1 3 5 21 63 90 420 1900
2020-07-13 10:30 5.00 529 3740 (1996) 0 (2012) 210 1 1 3 5 21 63 90 420 1900
2020-07-13 09:30 5.03 550 3740 (1996) 0 (2012) 210 1 1 3 5 21 63 90 420 1900
2020-07-13 08:30 5.06 572 3740 (1996) 0 (2012) 210 1 1 3 5 21 63 90 420 1900
2020-07-13 07:30 5.10 601 3740 (1996) 0 (2012) 210 1 1 3 5 21 63 90 420 1900
2020-07-13 06:30 5.13 624 3740 (1996) 0 (2012) 210 1 1 3 5 21 63 90 420 1900
2020-07-13 05:30 5.16 648 3740 (1996) 0 (2012) 210 1 1 3 5 21 63 90 420 1900
2020-07-13 04:30 5.19 672 3740 (1996) 0 (2012) 210 1 1 3 5 21 63 90 420 1900
2020-07-13 03:30 5.22 696 3740 (1996) 0 (2012) 210 1 1 3 5 21 63 90 420 1900
2020-07-13 02:30 5.23 704 3740 (1996) 0 (2012) 210 1 1 3 5 21 63 90 420 1900
2020-07-13 01:30 5.23 704 3740 (1996) 0 (2012) 210 1 1 3 5 21 63 90 420 1900
2020-07-13 00:30 5.22 696 3740 (1996) 0 (2012) 210 1 1 3 5 21 63 90 420 1900
2020-07-12 23:30 5.22 696 2220 (2007) 0 (2012) 123 1 2 3 5 22 54 111 260 722
2020-07-12 22:30 5.23 704 2220 (2007) 0 (2012) 123 1 2 3 5 22 54 111 260 722
2020-07-12 21:30 5.23 704 2220 (2007) 0 (2012) 123 1 2 3 5 22 54 111 260 722
2020-07-12 20:30 5.20 680 2220 (2007) 0 (2012) 123 1 2 3 5 22 54 111 260 722
2020-07-12 19:30 5.06 572 2220 (2007) 0 (2012) 123 1 2 3 5 22 54 111 260 722
2020-07-12 18:30 4.43 217 2220 (2007) 0 (2012) 123 1 2 3 5 22 54 111 260 722
2020-07-12 17:30 4.05 94 2220 (2007) 0 (2012) 123 1 2 3 5 22 54 111 260 722
2020-07-12 16:30 4.02 87 2220 (2007) 0 (2012) 123 1 2 3 5 22 54 111 260 722
2020-07-12 15:30 4.01 85 2220 (2007) 0 (2012) 123 1 2 3 5 22 54 111 260 722
2020-07-12 14:30 4.00 82 2220 (2007) 0 (2012) 123 1 2 3 5 22 54 111 260 722
2020-07-12 13:30 3.99 80 2220 (2007) 0 (2012) 123 1 2 3 5 22 54 111 260 722
2020-07-12 12:30 3.98 78 2220 (2007) 0 (2012) 123 1 2 3 5 22 54 111 260 722
2020-07-12 11:30 3.97 76 2220 (2007) 0 (2012) 123 1 2 3 5 22 54 111 260 722
2020-07-12 10:30 3.97 76 2220 (2007) 0 (2012) 123 1 2 3 5 22 54 111 260 722
2020-07-12 09:30 3.96 74 2220 (2007) 0 (2012) 123 1 2 3 5 22 54 111 260 722
2020-07-12 08:30 3.96 74 2220 (2007) 0 (2012) 123 1 2 3 5 22 54 111 260 722
2020-07-12 07:30 3.95 72 2220 (2007) 0 (2012) 123 1 2 3 5 22 54 111 260 722
2020-07-12 06:30 3.94 70 2220 (2007) 0 (2012) 123 1 2 3 5 22 54 111 260 722
2020-07-12 05:30 3.93 68 2220 (2007) 0 (2012) 123 1 2 3 5 22 54 111 260 722
2020-07-12 04:30 3.93 68 2220 (2007) 0 (2012) 123 1 2 3 5 22 54 111 260 722
2020-07-12 03:30 3.93 68 2220 (2007) 0 (2012) 123 1 2 3 5 22 54 111 260 722
2020-07-12 02:30 3.92 66 2220 (2007) 0 (2012) 123 1 2 3 5 22 54 111 260 722
2020-07-12 01:30 3.87 57 2220 (2007) 0 (2012) 123 1 2 3 5 22 54 111 260 722
2020-07-12 00:30 3.81 47 2220 (2007) 0 (2012) 123 1 2 3 5 22 54 111 260 722
2020-07-11 23:30 3.81 47 5010 (2007) 0 (2012) 150 1 2 4 6 19 53 68 247 612
2020-07-11 22:30 3.82 49 5010 (2007) 0 (2012) 150 1 2 4 6 19 53 68 247 612
2020-07-11 21:30 3.82 49 5010 (2007) 0 (2012) 150 1 2 4 6 19 53 68 247 612
2020-07-11 20:30 3.83 50 5010 (2007) 0 (2012) 150 1 2 4 6 19 53 68 247 612
2020-07-11 19:30 3.83 50 5010 (2007) 0 (2012) 150 1 2 4 6 19 53 68 247 612
2020-07-11 18:30 3.83 50 5010 (2007) 0 (2012) 150 1 2 4 6 19 53 68 247 612
2020-07-11 17:30 3.84 51 5010 (2007) 0 (2012) 150 1 2 4 6 19 53 68 247 612
2020-07-11 16:30 3.85 53 5010 (2007) 0 (2012) 150 1 2 4 6 19 53 68 247 612
2020-07-11 15:30 3.85 53 5010 (2007) 0 (2012) 150 1 2 4 6 19 53 68 247 612
2020-07-11 14:30 3.86 55 5010 (2007) 0 (2012) 150 1 2 4 6 19 53 68 247 612
2020-07-11 13:30 3.86 55 5010 (2007) 0 (2012) 150 1 2 4 6 19 53 68 247 612
2020-07-11 12:30 3.87 57 5010 (2007) 0 (2012) 150 1 2 4 6 19 53 68 247 612
2020-07-11 11:30 3.87 57 5010 (2007) 0 (2012) 150 1 2 4 6 19 53 68 247 612
2020-07-11 10:30 3.87 57 5010 (2007) 0 (2012) 150 1 2 4 6 19 53 68 247 612
2020-07-11 09:30 3.88 58 5010 (2007) 0 (2012) 150 1 2 4 6 19 53 68 247 612
2020-07-11 08:30 3.88 58 5010 (2007) 0 (2012) 150 1 2 4 6 19 53 68 247 612
2020-07-11 07:30 3.89 60 5010 (2007) 0 (2012) 150 1 2 4 6 19 53 68 247 612
2020-07-11 06:30 3.89 60 5010 (2007) 0 (2012) 150 1 2 4 6 19 53 68 247 612
2020-07-11 05:30 3.90 62 5010 (2007) 0 (2012) 150 1 2 4 6 19 53 68 247 612
2020-07-11 04:30 3.90 62 5010 (2007) 0 (2012) 150 1 2 4 6 19 53 68 247 612
2020-07-11 03:30 3.91 64 5010 (2007) 0 (2012) 150 1 2 4 6 19 53 68 247 612
2020-07-11 02:30 3.91 64 5010 (2007) 0 (2012) 150 1 2 4 6 19 53 68 247 612
2020-07-11 01:30 3.92 66 5010 (2007) 0 (2012) 150 1 2 4 6 19 53 68 247 612
2020-07-11 00:30 3.92 66 5010 (2007) 0 (2012) 150 1 2 4 6 19 53 68 247 612
2020-07-10 23:30 3.93 68 9180 (2007) 0 (2012) 216 2 2 4 5 21 65 80 246 433
2020-07-10 22:30 3.93 68 9180 (2007) 0 (2012) 216 2 2 4 5 21 65 80 246 433
2020-07-10 21:30 3.94 70 9180 (2007) 0 (2012) 216 2 2 4 5 21 65 80 246 433
2020-07-10 20:30 3.95 72 9180 (2007) 0 (2012) 216 2 2 4 5 21 65 80 246 433
2020-07-10 19:30 3.95 72 9180 (2007) 0 (2012) 216 2 2 4 5 21 65 80 246 433
2020-07-10 18:30 3.96 74 9180 (2007) 0 (2012) 216 2 2 4 5 21 65 80 246 433
2020-07-10 17:30 3.97 76 9180 (2007) 0 (2012) 216 2 2 4 5 21 65 80 246 433
2020-07-10 16:30 3.97 76 9180 (2007) 0 (2012) 216 2 2 4 5 21 65 80 246 433
2020-07-10 15:30 3.98 78 9180 (2007) 0 (2012) 216 2 2 4 5 21 65 80 246 433
2020-07-10 14:30 3.98 78 9180 (2007) 0 (2012) 216 2 2 4 5 21 65 80 246 433
2020-07-10 13:30 3.99 80 9180 (2007) 0 (2012) 216 2 2 4 5 21 65 80 246 433
2020-07-10 12:30 3.99 80 9180 (2007) 0 (2012) 216 2 2 4 5 21 65 80 246 433
2020-07-10 11:30 4.00 82 9180 (2007) 0 (2012) 216 2 2 4 5 21 65 80 246 433
2020-07-10 10:30 4.00 82 9180 (2007) 0 (2012) 216 2 2 4 5 21 65 80 246 433
2020-07-10 09:30 4.01 85 9180 (2007) 0 (2012) 216 2 2 4 5 21 65 80 246 433
2020-07-10 08:30 4.01 85 9180 (2007) 0 (2012) 216 2 2 4 5 21 65 80 246 433
2020-07-10 07:30 4.02 87 9180 (2007) 0 (2012) 216 2 2 4 5 21 65 80 246 433
2020-07-10 06:30 4.02 87 9180 (2007) 0 (2012) 216 2 2 4 5 21 65 80 246 433
2020-07-10 05:30 4.04 91 9180 (2007) 0 (2012) 216 2 2 4 5 21 65 80 246 433
2020-07-10 04:30 4.04 91 9180 (2007) 0 (2012) 216 2 2 4 5 21 65 80 246 433
2020-07-10 03:30 4.04 91 9180 (2007) 0 (2012) 216 2 2 4 5 21 65 80 246 433
2020-07-10 02:30 4.05 94 9180 (2007) 0 (2012) 216 2 2 4 5 21 65 80 246 433
2020-07-10 01:30 4.06 96 9180 (2007) 0 (2012) 216 2 2 4 5 21 65 80 246 433
2020-07-10 00:30 4.07 99 9180 (2007) 0 (2012) 216 2 2 4 5 21 65 80 246 433
2020-07-09 23:30 4.07 99 865 (2007) 0 (2012) 80 2 2 4 6 23 71 84 296 463
2020-07-09 22:30 4.08 101 865 (2007) 0 (2012) 80 2 2 4 6 23 71 84 296 463
2020-07-09 21:30 4.09 104 865 (2007) 0 (2012) 80 2 2 4 6 23 71 84 296 463
2020-07-09 20:30 4.10 106 865 (2007) 0 (2012) 80 2 2 4 6 23 71 84 296 463
2020-07-09 19:30 4.11 109 865 (2007) 0 (2012) 80 2 2 4 6 23 71 84 296 463
2020-07-09 18:30 4.12 112 865 (2007) 0 (2012) 80 2 2 4 6 23 71 84 296 463
2020-07-09 17:30 4.13 114 865 (2007) 0 (2012) 80 2 2 4 6 23 71 84 296 463
2020-07-09 16:30 4.14 117 865 (2007) 0 (2012) 80 2 2 4 6 23 71 84 296 463
2020-07-09 15:30 4.15 120 865 (2007) 0 (2012) 80 2 2 4 6 23 71 84 296 463
2020-07-09 14:30 4.15 120 865 (2007) 0 (2012) 80 2 2 4 6 23 71 84 296 463
2020-07-09 13:30 4.16 123 865 (2007) 0 (2012) 80 2 2 4 6 23 71 84 296 463
2020-07-09 12:30 4.17 126 865 (2007) 0 (2012) 80 2 2 4 6 23 71 84 296 463
2020-07-09 11:30 4.18 129 865 (2007) 0 (2012) 80 2 2 4 6 23 71 84 296 463
2020-07-09 10:30 4.18 129 865 (2007) 0 (2012) 80 2 2 4 6 23 71 84 296 463
2020-07-09 09:30 4.19 132 865 (2007) 0 (2012) 80 2 2 4 6 23 71 84 296 463
2020-07-09 08:30 4.19 132 865 (2007) 0 (2012) 80 2 2 4 6 23 71 84 296 463
2020-07-09 07:30 4.20 135 865 (2007) 0 (2012) 80 2 2 4 6 23 71 84 296 463
2020-07-09 06:30 4.21 138 865 (2007) 0 (2012) 80 2 2 4 6 23 71 84 296 463
2020-07-09 05:30 4.22 141 865 (2007) 0 (2012) 80 2 2 4 6 23 71 84 296 463
2020-07-09 04:30 4.23 144 865 (2007) 0 (2012) 80 2 2 4 6 23 71 84 296 463
2020-07-09 03:30 4.23 144 865 (2007) 0 (2012) 80 2 2 4 6 23 71 84 296 463
2020-07-09 02:30 4.24 147 865 (2007) 0 (2012) 80 2 2 4 6 23 71 84 296 463
2020-07-09 01:30 4.25 151 865 (2007) 0 (2012) 80 2 2 4 6 23 71 84 296 463
2020-07-09 00:30 4.26 154 865 (2007) 0 (2012) 80 2 2 4 6 23 71 84 296 463
2020-07-08 23:30 4.27 157 1620 (2004) 0 (2012) 106 1 3 5 7 25 60 101 306 716
2020-07-08 22:30 4.28 161 1620 (2004) 0 (2012) 106 1 3 5 7 25 60 101 306 716
2020-07-08 21:30 4.29 164 1620 (2004) 0 (2012) 106 1 3 5 7 25 60 101 306 716
2020-07-08 20:30 4.30 167 1620 (2004) 0 (2012) 106 1 3 5 7 25 60 101 306 716
2020-07-08 19:30 4.31 171 1620 (2004) 0 (2012) 106 1 3 5 7 25 60 101 306 716
2020-07-08 18:30 4.32 174 1620 (2004) 0 (2012) 106 1 3 5 7 25 60 101 306 716
2020-07-08 17:30 4.34 182 1620 (2004) 0 (2012) 106 1 3 5 7 25 60 101 306 716
2020-07-08 16:30 4.35 185 1620 (2004) 0 (2012) 106 1 3 5 7 25 60 101 306 716
2020-07-08 15:30 4.36 189 1620 (2004) 0 (2012) 106 1 3 5 7 25 60 101 306 716
2020-07-08 14:30 4.37 193 1620 (2004) 0 (2012) 106 1 3 5 7 25 60 101 306 716
2020-07-08 13:30 4.38 197 1620 (2004) 0 (2012) 106 1 3 5 7 25 60 101 306 716
2020-07-08 12:30 4.39 201 1620 (2004) 0 (2012) 106 1 3 5 7 25 60 101 306 716
2020-07-08 11:30 4.40 205 1620 (2004) 0 (2012) 106 1 3 5 7 25 60 101 306 716
2020-07-08 10:30 4.41 209 1620 (2004) 0 (2012) 106 1 3 5 7 25 60 101 306 716
2020-07-08 09:30 4.42 213 1620 (2004) 0 (2012) 106 1 3 5 7 25 60 101 306 716
2020-07-08 08:30 4.43 217 1620 (2004) 0 (2012) 106 1 3 5 7 25 60 101 306 716
2020-07-08 07:30 4.44 221 1620 (2004) 0 (2012) 106 1 3 5 7 25 60 101 306 716
2020-07-08 06:30 4.45 225 1620 (2004) 0 (2012) 106 1 3 5 7 25 60 101 306 716
2020-07-08 05:30 4.46 230 1620 (2004) 0 (2012) 106 1 3 5 7 25 60 101 306 716
2020-07-08 04:30 4.47 234 1620 (2004) 0 (2012) 106 1 3 5 7 25 60 101 306 716
2020-07-08 03:30 4.49 243 1620 (2004) 0 (2012) 106 1 3 5 7 25 60 101 306 716
2020-07-08 02:30 4.50 247 1620 (2004) 0 (2012) 106 1 3 5 7 25 60 101 306 716
2020-07-08 01:30 4.51 251 1620 (2004) 0 (2012) 106 1 3 5 7 25 60 101 306 716
2020-07-08 00:30 4.52 256 1620 (2004) 0 (2012) 106 1 3 5 7 25 60 101 306 716
2020-07-07 23:30 4.53 260 1170 (2007) 0 (2012) 91 1 3 6 8 23 70 105 179 608
2020-07-07 22:30 4.55 269 1170 (2007) 0 (2012) 91 1 3 6 8 23 70 105 179 608
2020-07-07 21:30 4.56 274 1170 (2007) 0 (2012) 91 1 3 6 8 23 70 105 179 608
2020-07-07 20:30 4.57 279 1170 (2007) 0 (2012) 91 1 3 6 8 23 70 105 179 608
2020-07-07 19:30 4.58 283 1170 (2007) 0 (2012) 91 1 3 6 8 23 70 105 179 608
2020-07-07 18:30 4.60 293 1170 (2007) 0 (2012) 91 1 3 6 8 23 70 105 179 608
2020-07-07 17:30 4.61 298 1170 (2007) 0 (2012) 91 1 3 6 8 23 70 105 179 608
2020-07-07 16:30 4.63 308 1170 (2007) 0 (2012) 91 1 3 6 8 23 70 105 179 608
2020-07-07 15:30 4.65 318 1170 (2007) 0 (2012) 91 1 3 6 8 23 70 105 179 608
2020-07-07 14:30 4.67 328 1170 (2007) 0 (2012) 91 1 3 6 8 23 70 105 179 608
2020-07-07 13:30 4.68 333 1170 (2007) 0 (2012) 91 1 3 6 8 23 70 105 179 608
2020-07-07 12:30 4.70 344 1170 (2007) 0 (2012) 91 1 3 6 8 23 70 105 179 608
2020-07-07 11:30 4.71 349 1170 (2007) 0 (2012) 91 1 3 6 8 23 70 105 179 608
2020-07-07 10:30 4.71 349 1170 (2007) 0 (2012) 91 1 3 6 8 23 70 105 179 608
2020-07-07 09:30 4.72 355 1170 (2007) 0 (2012) 91 1 3 6 8 23 70 105 179 608
2020-07-07 08:30 4.72 355 1170 (2007) 0 (2012) 91 1 3 6 8 23 70 105 179 608
2020-07-07 07:30 4.72 355 1170 (2007) 0 (2012) 91 1 3 6 8 23 70 105 179 608
2020-07-07 06:30 4.72 355 1170 (2007) 0 (2012) 91 1 3 6 8 23 70 105 179 608
2020-07-07 05:30 4.74 366 1170 (2007) 0 (2012) 91 1 3 6 8 23 70 105 179 608
2020-07-07 04:30 4.75 371 1170 (2007) 0 (2012) 91 1 3 6 8 23 70 105 179 608
2020-07-07 03:30 4.77 383 1170 (2007) 0 (2012) 91 1 3 6 8 23 70 105 179 608
2020-07-07 02:30 4.78 389 1170 (2007) 0 (2012) 91 1 3 6 8 23 70 105 179 608
2020-07-07 01:30 4.80 401 1170 (2007) 0 (2012) 91 1 3 6 8 23 70 105 179 608
2020-07-07 00:30 4.83 419 1170 (2007) 0 (2012) 91 1 3 6 8 23 70 105 179 608
2020-07-06 23:30 4.85 431 1700 (2017) 0 (2012) 114 1 4 7 9 27 76 119 236 492
2020-07-06 22:30 4.87 444 1700 (2017) 0 (2012) 114 1 4 7 9 27 76 119 236 492
2020-07-06 21:30 4.89 456 1700 (2017) 0 (2012) 114 1 4 7 9 27 76 119 236 492
2020-07-06 20:30 4.92 475 1700 (2017) 0 (2012) 114 1 4 7 9 27 76 119 236 492
2020-07-06 19:30 4.94 488 1700 (2017) 0 (2012) 114 1 4 7 9 27 76 119 236 492
2020-07-06 18:30 4.97 508 1700 (2017) 0 (2012) 114 1 4 7 9 27 76 119 236 492
2020-07-06 17:30 4.99 522 1700 (2017) 0 (2012) 114 1 4 7 9 27 76 119 236 492
2020-07-06 16:30 5.02 543 1700 (2017) 0 (2012) 114 1 4 7 9 27 76 119 236 492
2020-07-06 15:30 5.04 557 1700 (2017) 0 (2012) 114 1 4 7 9 27 76 119 236 492
2020-07-06 14:30 5.08 586 1700 (2017) 0 (2012) 114 1 4 7 9 27 76 119 236 492
2020-07-06 13:30 5.10 601 1700 (2017) 0 (2012) 114 1 4 7 9 27 76 119 236 492
2020-07-06 12:30 5.13 624 1700 (2017) 0 (2012) 114 1 4 7 9 27 76 119 236 492
2020-07-06 11:30 5.16 648 1700 (2017) 0 (2012) 114 1 4 7 9 27 76 119 236 492
2020-07-06 10:30 5.19 672 1700 (2017) 0 (2012) 114 1 4 7 9 27 76 119 236 492
2020-07-06 09:30 5.23 704 1700 (2017) 0 (2012) 114 1 4 7 9 27 76 119 236 492
2020-07-06 08:30 5.28 747 1700 (2017) 0 (2012) 114 1 4 7 9 27 76 119 236 492
2020-07-06 07:30 5.33 791 1700 (2017) 0 (2012) 114 1 4 7 9 27 76 119 236 492
2020-07-06 06:30 5.38 836 1700 (2017) 0 (2012) 114 1 4 7 9 27 76 119 236 492
2020-07-06 05:30 5.44 890 1700 (2017) 0 (2012) 114 1 4 7 9 27 76 119 236 492
2020-07-06 04:30 5.47 918 1700 (2017) 0 (2012) 114 1 4 7 9 27 76 119 236 492
2020-07-06 03:30 5.58 1020 1700 (2017) 0 (2012) 114 1 4 7 9 27 76 119 236 492
2020-07-06 02:30 5.61 1060 1700 (2017) 0 (2012) 114 1 4 7 9 27 76 119 236 492
2020-07-06 01:30 5.71 1160 1700 (2017) 0 (2012) 114 1 4 7 9 27 76 119 236 492
2020-07-06 00:30 5.76 1220 1700 (2017) 0 (2012) 114 1 4 7 9 27 76 119 236 492

A total of 187 rows are displayed for years 1962 through 2019.